Time;durP1;ratioP1;P1;durP2;ratioP2;P2;SDS_P1;SDS_P2;PMS_P1;PMS_P2;Temp;Humidity;BMP_temperature;BMP_pressure;BME280_temperature;BME280_humidity;BME280_pressure;Samples;Min_cycle;Max_cycle;Signal;HPM_P1;HPM_P2
2021/12/14 00:00:37;;;;;;;23.77;18.63;;;8.60;99.90;;;;;;5024755;28;20040;-71
2021/12/14 00:03:03;;;;;;;21.45;17.33;;;8.60;99.90;;;;;;5016706;28;20409;-71
2021/12/14 00:05:31;;;;;;;22.13;16.48;;;8.60;99.90;;;;;;5008466;28;20566;-72
2021/12/14 00:08:00;;;;;;;19.67;16.27;;;8.70;99.90;;;;;;5033011;28;20064;-71
2021/12/14 00:13:26;;;;;;;18.95;16.77;;;8.70;99.90;;;;;;5024891;28;20128;-71
2021/12/14 00:15:53;;;;;;;19.35;17.35;;;8.60;99.90;;;;;;5031478;28;20140;-71
2021/12/14 00:18:20;;;;;;;19.60;15.50;;;8.60;99.90;;;;;;4999654;28;20699;-71
2021/12/14 00:20:56;;;;;;;21.00;16.05;;;8.60;99.90;;;;;;5024594;28;20060;-71
2021/12/14 00:26:14;;;;;;;17.58;15.77;;;8.60;99.90;;;;;;5034633;28;20134;-71
2021/12/14 00:28:40;;;;;;;22.40;16.00;;;8.60;99.90;;;;;;5044878;28;20033;-71
2021/12/14 00:31:15;;;;;;;18.15;16.20;;;8.60;99.90;;;;;;5046103;28;20044;-71
2021/12/14 00:33:43;;;;;;;17.23;15.32;;;8.60;99.90;;;;;;5031653;28;20408;-71
2021/12/14 00:36:12;;;;;;;18.25;15.80;;;8.60;99.90;;;;;;5026487;28;20053;-71
2021/12/14 00:38:41;;;;;;;18.40;16.05;;;8.60;99.90;;;;;;5010345;28;20053;-71
2021/12/14 00:41:17;;;;;;;18.35;16.33;;;8.60;99.90;;;;;;5029566;28;20052;-71
2021/12/14 00:43:44;;;;;;;21.40;15.88;;;8.60;99.90;;;;;;5034650;28;20057;-70
2021/12/14 00:46:10;;;;;;;18.05;15.63;;;8.60;99.90;;;;;;5046448;28;20076;-71
2021/12/14 00:48:38;;;;;;;20.52;16.88;;;8.60;99.90;;;;;;5024406;28;20072;-71
2021/12/14 00:51:05;;;;;;;19.58;16.92;;;8.50;99.90;;;;;;5010463;28;20057;-71
2021/12/14 00:53:31;;;;;;;21.85;17.70;;;8.60;99.90;;;;;;5026318;28;20136;-71
2021/12/14 00:56:05;;;;;;;21.30;18.63;;;8.50;99.90;;;;;;5013034;28;20597;-71
2021/12/14 00:58:30;;;;;;;20.88;17.33;;;8.50;99.90;;;;;;5032028;28;20056;-71
2021/12/14 01:01:22;;;;;;;23.95;17.92;;;8.50;99.90;;;;;;5031133;28;20076;-71
2021/12/14 01:03:52;;;;;;;23.48;19.27;;;8.50;99.90;;;;;;5062812;28;20052;-71
2021/12/14 01:06:19;;;;;;;21.70;19.33;;;8.50;99.90;;;;;;5030121;28;20391;-71
2021/12/14 01:08:48;;;;;;;22.15;18.33;;;8.50;99.90;;;;;;5048914;28;20116;-71
2021/12/14 01:11:23;;;;;;;23.38;19.73;;;8.50;99.90;;;;;;5033160;28;20053;-71
2021/12/14 01:14:06;;;;;;;22.13;19.50;;;8.50;99.90;;;;;;5046946;28;20059;-71
2021/12/14 01:16:52;;;;;;;23.75;19.73;;;8.50;99.90;;;;;;5030194;28;20041;-71
2021/12/14 01:19:26;;;;;;;24.00;19.90;;;8.50;99.90;;;;;;5022052;28;20044;-71
2021/12/14 01:27:20;;;;;;;24.83;20.23;;;8.50;99.90;;;;;;5063427;28;20091;-71
2021/12/14 01:29:50;;;;;;;24.80;21.33;;;8.50;99.90;;;;;;5031310;28;20045;-71
2021/12/14 01:32:16;;;;;;;24.95;21.60;;;8.50;99.90;;;;;;5029815;28;20128;-71
2021/12/14 01:34:42;;;;;;;23.75;20.08;;;8.50;99.90;;;;;;5027736;28;20099;-71
2021/12/14 01:37:14;;;;;;;22.45;20.02;;;8.50;99.90;;;;;;5011777;28;20045;-71
2021/12/14 01:40:01;;;;;;;25.42;21.42;;;8.50;99.90;;;;;;5042847;28;20079;-71
2021/12/14 01:42:35;;;;;;;24.40;21.33;;;8.50;99.90;;;;;;5048046;28;20048;-71
2021/12/14 01:45:11;;;;;;;26.05;21.48;;;8.50;99.90;;;;;;5048057;28;20041;-71
2021/12/14 01:47:42;;;;;;;26.73;21.77;;;8.50;99.90;;;;;;5030070;28;20052;-71
2021/12/14 01:50:13;;;;;;;;;;;8.60;99.90;;;;;;5048219;28;20073;-71
2021/12/14 01:52:40;;;;;;;25.33;21.33;;;8.60;99.90;;;;;;5030048;28;20398;-71
2021/12/14 01:55:15;;;;;;;27.08;22.38;;;8.50;99.90;;;;;;5047863;28;20056;-71
2021/12/14 01:57:43;;;;;;;28.65;23.02;;;8.50;99.90;;;;;;5047177;28;20056;-71
2021/12/14 02:00:14;;;;;;;25.63;21.65;;;8.50;99.90;;;;;;5031089;28;20056;-71
2021/12/14 02:02:44;;;;;;;27.42;22.38;;;8.50;99.90;;;;;;5046988;28;20053;-71
2021/12/14 02:05:23;;;;;;;26.75;22.15;;;8.60;99.90;;;;;;5047090;28;20487;-71
2021/12/14 02:07:50;;;;;;;27.80;22.63;;;8.60;99.90;;;;;;5030690;28;20472;-71
2021/12/14 02:10:24;;;;;;;29.17;23.00;;;8.50;99.90;;;;;;5029492;28;20172;-71
2021/12/14 02:12:51;;;;;;;26.08;21.77;;;8.50;99.90;;;;;;5046625;28;20052;-71
2021/12/14 02:15:24;;;;;;;28.15;22.67;;;8.60;99.90;;;;;;5037915;28;20068;-71
2021/12/14 02:17:52;;;;;;;28.17;22.20;;;8.50;99.90;;;;;;5043452;28;20057;-70
2021/12/14 02:20:24;;;;;;;27.08;21.30;;;8.50;99.90;;;;;;5031540;28;20059;-71
2021/12/14 02:22:50;;;;;;;26.23;21.42;;;8.60;99.90;;;;;;5047364;28;20060;-71
2021/12/14 02:25:17;;;;;;;27.88;21.35;;;8.60;99.90;;;;;;5044882;28;20067;-71
2021/12/14 02:27:50;;;;;;;25.67;21.17;;;8.60;99.90;;;;;;5045483;28;20560;-71
2021/12/14 02:30:23;;;;;;;28.05;22.67;;;8.60;99.90;;;;;;5046480;28;20079;-71
2021/12/14 02:32:49;;;;;;;24.60;20.83;;;8.60;99.90;;;;;;5038965;28;20076;-71
2021/12/14 02:35:19;;;;;;;25.73;22.10;;;8.60;99.90;;;;;;5021081;28;20107;-70
2021/12/14 02:38:01;;;;;;;28.33;23.77;;;8.70;99.90;;;;;;5043639;28;20099;-71
2021/12/14 02:43:23;;;;;;;26.38;21.77;;;8.60;99.90;;;;;;5046723;28;20407;-71
2021/12/14 02:45:49;;;;;;;28.75;23.15;;;8.60;99.90;;;;;;5044251;28;20057;-71
2021/12/14 02:48:15;;;;;;;26.15;21.63;;;8.60;99.90;;;;;;5033612;28;20045;-71
2021/12/14 02:50:47;;;;;;;30.67;24.63;;;8.60;99.90;;;;;;5018388;28;20536;-71
2021/12/14 02:53:14;;;;;;;27.73;24.08;;;8.60;99.90;;;;;;5023862;28;20783;-71
2021/12/14 02:55:40;;;;;;;32.42;24.58;;;8.60;99.90;;;;;;5029406;28;20870;-71
2021/12/14 02:58:08;;;;;;;29.60;23.45;;;8.60;99.90;;;;;;5030114;28;20076;-71
2021/12/14 03:00:48;;;;;;;31.23;25.27;;;8.60;99.90;;;;;;5011964;28;20061;-71
2021/12/14 03:03:15;;;;;;;33.25;25.35;;;8.60;99.90;;;;;;5045169;28;20681;-71
2021/12/14 03:05:46;;;;;;;29.92;24.42;;;8.60;99.90;;;;;;5029379;28;20048;-71
2021/12/14 03:08:19;;;;;;;32.65;26.33;;;8.50;99.90;;;;;;5046478;28;20515;-71
2021/12/14 03:11:10;;;;;;;33.28;26.40;;;8.50;99.90;;;;;;5045041;28;20132;-71
2021/12/14 03:13:42;;;;;;;31.73;25.77;;;8.50;99.90;;;;;;5031432;28;20053;-71
2021/12/14 03:16:13;;;;;;;33.88;27.30;;;8.50;99.90;;;;;;5045633;28;20494;-71
2021/12/14 03:18:42;;;;;;;35.88;27.70;;;8.50;99.90;;;;;;5031647;28;20091;-71
2021/12/14 03:21:18;;;;;;;35.85;26.92;;;8.50;99.90;;;;;;5043389;28;20138;-71
2021/12/14 03:23:48;;;;;;;36.80;28.10;;;8.50;99.90;;;;;;5038545;28;20057;-71
2021/12/14 03:26:17;;;;;;;37.55;29.20;;;8.50;99.90;;;;;;5009179;28;20096;-71
2021/12/14 03:28:47;;;;;;;40.42;29.38;;;8.50;99.90;;;;;;5024931;28;20107;-72
2021/12/14 03:31:22;;;;;;;35.92;28.10;;;8.50;99.90;;;;;;5043212;28;20039;-71
2021/12/14 03:34:01;;;;;;;38.67;30.52;;;8.50;99.90;;;;;;5033531;28;20051;-71
2021/12/14 03:36:33;;;;;;;40.47;30.85;;;8.50;99.90;;;;;;5045693;28;20049;-71
2021/12/14 03:39:24;;;;;;;41.85;30.45;;;8.60;99.90;;;;;;5044879;28;20511;-71
2021/12/14 03:41:54;;;;;;;39.45;30.33;;;8.50;99.90;;;;;;5039080;28;20041;-70
2021/12/14 03:44:25;;;;;;;42.95;31.55;;;8.50;99.90;;;;;;5028872;28;20048;-71
2021/12/14 03:46:59;;;;;;;41.42;31.60;;;8.50;99.90;;;;;;5045782;28;20531;-71
2021/12/14 03:49:34;;;;;;;41.70;31.70;;;8.50;99.90;;;;;;5017151;28;20102;-71
2021/12/14 03:52:00;;;;;;;41.58;30.85;;;8.50;99.90;;;;;;5026689;28;20130;-71
2021/12/14 03:54:27;;;;;;;44.72;33.47;;;8.40;99.90;;;;;;5013226;28;20123;-71
2021/12/14 03:56:54;;;;;;;43.75;32.03;;;8.40;99.90;;;;;;5045059;28;20458;-71
2021/12/14 03:59:21;;;;;;;42.95;32.58;;;8.40;99.90;;;;;;5045130;28;20072;-71
2021/12/14 04:01:49;;;;;;;47.35;32.75;;;8.40;99.90;;;;;;5023779;28;20053;-70
2021/12/14 04:04:20;;;;;;;42.63;33.13;;;8.50;99.90;;;;;;5025415;28;20500;-70
2021/12/14 04:06:50;;;;;;;44.88;32.63;;;8.40;99.90;;;;;;5025218;28;20041;-71
2021/12/14 04:09:20;;;;;;;45.30;33.00;;;8.40;99.90;;;;;;5035713;28;20454;-70
2021/12/14 04:11:46;;;;;;;49.92;34.13;;;8.40;99.90;;;;;;5028140;28;20057;-70
2021/12/14 04:14:12;;;;;;;46.95;33.20;;;8.40;99.90;;;;;;5001257;28;20224;-70
2021/12/14 04:16:46;;;;;;;45.55;34.58;;;8.40;99.90;;;;;;5044244;28;20106;-70
2021/12/14 04:19:20;;;;;;;43.05;33.10;;;8.40;99.90;;;;;;5027566;28;20059;-73
2021/12/14 04:21:46;;;;;;;47.83;34.67;;;8.40;99.90;;;;;;5043944;28;20384;-70
2021/12/14 04:24:14;;;;;;;48.17;34.28;;;8.40;99.90;;;;;;5044981;28;20059;-70
2021/12/14 04:26:45;;;;;;;45.90;34.28;;;8.30;99.90;;;;;;5044273;28;20044;-71
2021/12/14 04:29:12;;;;;;;46.83;33.35;;;8.40;99.90;;;;;;5027460;28;20037;-71
2021/12/14 04:31:40;;;;;;;45.95;34.03;;;8.40;99.90;;;;;;5027131;28;20056;-71
2021/12/14 04:34:06;;;;;;;46.90;35.60;;;8.30;99.90;;;;;;5026495;28;20393;-71
2021/12/14 04:36:32;;;;;;;46.97;33.97;;;8.40;99.90;;;;;;5044446;28;20479;-70
2021/12/14 04:39:28;;;;;;;46.08;33.95;;;8.40;99.90;;;;;;5044190;28;20072;-73
2021/12/14 04:53:11;;;;;;;49.83;34.95;;;8.30;99.90;;;;;;5061070;28;20146;-71
2021/12/14 04:55:45;;;;;;;43.97;34.13;;;8.30;99.90;;;;;;5027968;28;20052;-70
2021/12/14 04:58:12;;;;;;;44.28;33.13;;;8.40;99.90;;;;;;5027655;28;20052;-70
2021/12/14 05:00:44;;;;;;;46.42;33.70;;;8.30;99.90;;;;;;5024471;28;20098;-72
2021/12/14 05:03:26;;;;;;;45.55;32.53;;;8.40;99.90;;;;;;5042414;28;20045;-73
2021/12/14 05:06:16;;;;;;;48.95;35.65;;;8.30;99.90;;;;;;5023884;28;20099;-70
2021/12/14 05:11:17;;;;;;;50.17;36.72;;;8.50;99.90;;;;;;5043752;28;20057;-70
2021/12/14 05:13:59;;;;;;;46.78;35.88;;;8.30;99.90;;;;;;5035774;28;20054;-70
2021/12/14 05:16:27;;;;;;;52.20;37.20;;;8.30;99.90;;;;;;5024214;28;20048;-70
2021/12/14 05:18:57;;;;;;;51.08;36.83;;;8.30;99.90;;;;;;5003480;28;20057;-70
2021/12/14 05:21:30;;;;;;;51.58;36.35;;;8.30;99.90;;;;;;5027303;28;20059;-71
2021/12/14 05:23:57;;;;;;;51.17;36.85;;;8.20;99.90;;;;;;5043786;28;20049;-71
2021/12/14 05:26:23;;;;;;;51.40;36.22;;;8.30;99.90;;;;;;5043512;28;20375;-71
2021/12/14 05:28:49;;;;;;;53.17;35.00;;;8.30;99.90;;;;;;5043015;28;20365;-71
2021/12/14 05:31:16;;;;;;;52.63;35.92;;;8.30;99.90;;;;;;5026600;28;20117;-70
2021/12/14 05:33:43;;;;;;;51.53;36.95;;;8.30;99.90;;;;;;5015290;28;20056;-70
2021/12/14 05:36:14;;;;;;;52.63;36.65;;;8.30;99.90;;;;;;5026293;28;20044;-70
2021/12/14 05:43:58;;;;;;;51.47;37.20;;;8.20;99.90;;;;;;5009544;28;20048;-73
2021/12/14 05:46:25;;;;;;;56.67;38.53;;;8.20;99.90;;;;;;5030657;28;20415;-73
2021/12/14 05:49:01;;;;;;;55.65;39.00;;;8.20;99.90;;;;;;5045764;28;20072;-70
2021/12/14 05:51:29;;;;;;;56.08;40.17;;;8.20;99.90;;;;;;5042293;28;20057;-70
2021/12/14 05:53:56;;;;;;;56.47;38.95;;;8.20;99.90;;;;;;5054014;28;20045;-71
2021/12/14 05:56:24;;;;;;;56.03;38.03;;;8.20;99.90;;;;;;5014682;28;20502;-70
2021/12/14 05:58:51;;;;;;;59.03;38.22;;;8.20;99.90;;;;;;5040786;28;21056;-71
2021/12/14 06:01:20;;;;;;;58.97;40.80;;;8.20;99.90;;;;;;5037594;28;20040;-71
2021/12/14 06:04:06;;;;;;;55.88;39.85;;;8.20;99.90;;;;;;5019303;28;20063;-71
2021/12/14 06:06:41;;;;;;;57.40;40.38;;;8.20;99.90;;;;;;5032631;28;20072;-71
2021/12/14 06:09:18;;;;;;;59.15;41.60;;;8.20;99.90;;;;;;5014199;28;20045;-70
2021/12/14 06:11:48;;;;;;;58.03;40.35;;;8.20;99.90;;;;;;5029893;28;20088;-70
2021/12/14 06:14:24;;;;;;;61.42;41.58;;;8.20;99.90;;;;;;5045604;28;20341;-70
2021/12/14 06:16:55;;;;;;;64.70;43.10;;;8.20;99.90;;;;;;5026106;28;20044;-70
2021/12/14 06:19:37;;;;;;;64.95;42.80;;;8.20;99.90;;;;;;5022019;28;20045;-70
2021/12/14 06:22:07;;;;;;;66.40;43.35;;;8.20;99.90;;;;;;5054999;28;20265;-73
2021/12/14 06:24:35;;;;;;;70.38;44.60;;;8.20;99.90;;;;;;5038647;28;20056;-71
2021/12/14 06:27:04;;;;;;;67.75;44.33;;;8.20;99.90;;;;;;5027137;28;20056;-71
2021/12/14 06:29:49;;;;;;;77.35;46.10;;;8.20;99.90;;;;;;5032833;28;20048;-71
2021/12/14 06:32:19;;;;;;;71.75;45.83;;;8.20;99.90;;;;;;5029447;28;20416;-72
2021/12/14 06:34:53;;;;;;;75.10;46.20;;;8.20;99.90;;;;;;5031539;28;20045;-72
2021/12/14 06:38:06;;;;;;;72.07;45.92;;;8.10;99.90;;;;;;5037538;28;20072;-71
2021/12/14 06:40:53;;;;;;;68.20;44.38;;;8.20;99.90;;;;;;5011280;28;20069;-71
2021/12/14 06:43:42;;;;;;;72.70;45.45;;;8.10;99.90;;;;;;5036929;28;20037;-72
2021/12/14 06:46:14;;;;;;;77.07;46.25;;;8.10;99.90;;;;;;5033290;28;20060;-71
2021/12/14 06:48:49;;;;;;;80.10;46.97;;;8.10;99.90;;;;;;5014036;28;20041;-71
2021/12/14 06:51:18;;;;;;;81.30;47.58;;;8.10;99.90;;;;;;5031426;28;20077;-71
2021/12/14 06:53:49;;;;;;;83.78;49.30;;;8.10;99.90;;;;;;5042189;28;20053;-73
2021/12/14 06:56:16;;;;;;;85.70;48.30;;;8.20;99.90;;;;;;5027683;28;20052;-73
2021/12/14 06:58:54;;;;;;;84.72;48.95;;;8.10;99.90;;;;;;5029530;28;20056;-72
2021/12/14 07:01:25;;;;;;;84.03;50.63;;;8.10;99.90;;;;;;5011733;28;20345;-72
2021/12/14 07:04:01;;;;;;;84.05;49.20;;;8.10;99.90;;;;;;5018838;28;20045;-72
2021/12/14 07:06:29;;;;;;;79.65;47.58;;;8.10;99.90;;;;;;5034935;28;20092;-72
2021/12/14 07:09:18;;;;;;;78.25;47.13;;;8.20;99.90;;;;;;5027614;28;20045;-72
2021/12/14 07:11:47;;;;;;;82.05;48.65;;;8.10;99.90;;;;;;5032222;28;20045;-72
2021/12/14 07:14:36;;;;;;;72.82;46.33;;;8.20;99.90;;;;;;5013138;28;20052;-72
2021/12/14 07:17:27;;;;;;;80.20;49.20;;;8.20;99.90;;;;;;5024973;28;20053;-72
2021/12/14 07:20:11;;;;;;;78.57;49.53;;;8.20;99.90;;;;;;5026300;28;20499;-72
2021/12/14 07:22:39;;;;;;;81.32;49.50;;;8.20;99.90;;;;;;5047172;28;20045;-72
2021/12/14 07:25:08;;;;;;;72.35;46.85;;;8.20;99.90;;;;;;5024467;28;20553;-72
2021/12/14 07:27:41;;;;;;;76.97;48.38;;;8.20;99.90;;;;;;5044662;28;20277;-71
2021/12/14 07:30:16;;;;;;;73.78;48.05;;;8.20;99.90;;;;;;5043368;28;20117;-71
2021/12/14 07:32:47;;;;;;;76.80;49.58;;;8.20;99.90;;;;;;5026465;28;20037;-71
2021/12/14 07:35:32;;;;;;;76.20;49.28;;;8.20;99.90;;;;;;5043159;28;20037;-71
2021/12/14 07:38:16;;;;;;;82.07;50.65;;;8.30;99.90;;;;;;5041480;28;20041;-71
2021/12/14 07:40:53;;;;;;;79.35;48.92;;;8.20;99.90;;;;;;5026419;28;20068;-73
2021/12/14 07:43:24;;;;;;;82.68;48.40;;;8.30;99.90;;;;;;5043790;28;20080;-73
2021/12/14 07:45:51;;;;;;;82.85;48.78;;;8.30;99.90;;;;;;5043376;28;20036;-73
2021/12/14 07:48:19;;;;;;;87.47;51.25;;;8.30;99.90;;;;;;5025280;28;20059;-73
2021/12/14 07:50:53;;;;;;;87.07;51.00;;;8.30;99.90;;;;;;5043218;28;20112;-74
2021/12/14 07:53:33;;;;;;;91.30;51.17;;;8.30;99.90;;;;;;5040684;28;20056;-73
2021/12/14 07:55:59;;;;;;;90.38;52.15;;;8.30;99.90;;;;;;5043066;28;20596;-73
2021/12/14 07:58:35;;;;;;;88.65;53.33;;;8.30;99.90;;;;;;5043634;28;20542;-73
2021/12/14 08:01:03;;;;;;;93.35;52.45;;;8.30;99.90;;;;;;5043156;28;20127;-73
2021/12/14 08:03:33;;;;;;;90.55;51.75;;;8.20;99.90;;;;;;5026870;28;20162;-73
2021/12/14 08:06:05;;;;;;;91.90;52.47;;;8.20;99.90;;;;;;5010786;28;20606;-73
2021/12/14 08:08:45;;;;;;;98.50;53.95;;;8.30;99.90;;;;;;5041037;28;20728;-74
2021/12/14 08:14:24;;;;;;;95.20;53.38;;;8.20;99.90;;;;;;5039291;28;19920;-73
2021/12/14 08:16:54;;;;;;;95.35;52.70;;;8.20;99.90;;;;;;5033303;28;20055;-73
2021/12/14 08:19:36;;;;;;;95.03;53.15;;;8.30;99.90;;;;;;5026089;28;20255;-73
2021/12/14 08:22:24;;;;;;;97.65;53.58;;;8.30;99.90;;;;;;5026185;28;20080;-73
2021/12/14 08:24:50;;;;;;;110.95;56.58;;;8.30;99.90;;;;;;5022426;28;20052;-73
2021/12/14 08:27:22;;;;;;;92.18;52.92;;;8.30;99.90;;;;;;5043551;28;20037;-73
2021/12/14 08:29:51;;;;;;;89.57;52.50;;;8.30;99.90;;;;;;5026785;28;20098;-73
2021/12/14 08:32:21;;;;;;;91.22;53.97;;;8.30;99.90;;;;;;5041334;28;20059;-73
2021/12/14 08:34:49;;;;;;;86.43;52.85;;;8.30;99.90;;;;;;5058183;28;20047;-73
2021/12/14 08:37:19;;;;;;;86.47;51.80;;;8.40;99.90;;;;;;5027655;28;20044;-73
2021/12/14 08:39:58;;;;;;;87.60;52.67;;;8.40;99.90;;;;;;5024469;28;20476;-73
2021/12/14 08:42:41;;;;;;;81.72;51.28;;;8.30;99.90;;;;;;5043338;28;20045;-73
2021/12/14 08:45:26;;;;;;;82.90;50.97;;;8.40;99.90;;;;;;5042618;28;20127;-73
2021/12/14 08:48:09;;;;;;;80.90;51.10;;;8.40;99.90;;;;;;5025268;28;20194;-73
2021/12/14 08:50:45;;;;;;;78.97;51.22;;;8.40;99.90;;;;;;5042017;28;20037;-73
2021/12/14 08:53:13;;;;;;;77.80;49.85;;;8.40;99.90;;;;;;5039881;28;20052;-73
2021/12/14 08:55:43;;;;;;;76.10;51.35;;;8.40;99.90;;;;;;5041842;28;20045;-73
2021/12/14 08:58:09;;;;;;;;;;;8.50;99.90;;;;;;5043574;28;20087;-73
2021/12/14 09:00:39;;;;;;;77.88;49.38;;;8.40;99.90;;;;;;5024002;28;19931;-73
2021/12/14 09:03:13;;;;;;;77.03;49.83;;;8.40;99.90;;;;;;5025345;28;20059;-73
2021/12/14 09:05:47;;;;;;;78.43;51.95;;;8.50;99.90;;;;;;5024268;28;20072;-73
2021/12/14 09:08:16;;;;;;;72.97;48.35;;;8.50;99.90;;;;;;5041362;28;20056;-73
2021/12/14 09:10:47;;;;;;;75.53;50.30;;;8.50;99.90;;;;;;5025784;28;20056;-73
2021/12/14 09:13:14;;;;;;;72.20;48.97;;;8.50;99.90;;;;;;5042426;28;20053;-73
2021/12/14 09:15:49;;;;;;;77.20;50.08;;;8.50;99.90;;;;;;5024675;28;20041;-73
2021/12/14 09:18:18;;;;;;;71.63;49.05;;;8.50;99.90;;;;;;5024480;28;20045;-73
2021/12/14 09:20:52;;;;;;;73.18;50.38;;;8.50;99.90;;;;;;5029833;28;20052;-71
2021/12/14 09:23:22;;;;;;;72.88;48.97;;;8.50;99.90;;;;;;5045888;28;20069;-71
2021/12/14 09:25:49;;;;;;;75.60;49.13;;;8.50;99.90;;;;;;5030370;28;20069;-71
2021/12/14 09:28:15;;;;;;;75.65;49.75;;;8.60;99.90;;;;;;5013659;28;20106;-71
2021/12/14 09:30:49;;;;;;;79.82;50.97;;;8.50;99.90;;;;;;5045914;28;20045;-71
2021/12/14 09:33:16;;;;;;;73.75;48.70;;;8.60;99.90;;;;;;5028236;28;20041;-71
2021/12/14 09:35:44;;;;;;;74.90;50.65;;;8.60;99.90;;;;;;5029252;28;20041;-71
2021/12/14 09:38:17;;;;;;;73.97;50.08;;;8.60;99.90;;;;;;5045467;28;20047;-71
2021/12/14 09:40:54;;;;;;;80.72;53.00;;;8.60;99.90;;;;;;5029170;28;20067;-72
2021/12/14 09:43:22;;;;;;;75.88;48.30;;;8.60;99.90;;;;;;5029428;28;20049;-72
2021/12/14 09:45:54;;;;;;;79.45;50.45;;;8.60;99.90;;;;;;5029374;28;20060;-71
2021/12/14 09:48:27;;;;;;;93.47;54.28;;;8.70;99.90;;;;;;5027154;28;20068;-72
2021/12/14 09:50:55;;;;;;;82.70;51.88;;;8.60;99.90;;;;;;5026577;28;20095;-72
2021/12/14 09:53:24;;;;;;;85.40;53.50;;;8.60;99.90;;;;;;5024996;28;20051;-72
2021/12/14 09:55:53;;;;;;;84.38;52.10;;;8.60;99.90;;;;;;5024000;28;20480;-72
2021/12/14 09:58:25;;;;;;;88.15;51.67;;;8.60;99.90;;;;;;5033971;28;20049;-71
2021/12/14 10:00:58;;;;;;;87.20;49.33;;;8.60;99.90;;;;;;5037654;28;20045;-72
2021/12/14 10:03:25;;;;;;;90.88;55.35;;;8.60;99.90;;;;;;5022120;28;20053;-72
2021/12/14 10:05:56;;;;;;;90.45;52.42;;;8.60;99.90;;;;;;5024583;28;20481;-72
2021/12/14 10:08:31;;;;;;;88.07;52.35;;;8.60;99.90;;;;;;5023941;28;20047;-72
2021/12/14 10:11:06;;;;;;;87.07;50.90;;;8.60;99.90;;;;;;5021597;28;20072;-71
2021/12/14 10:13:36;;;;;;;81.57;49.95;;;8.70;99.90;;;;;;5032879;28;20045;-72
2021/12/14 10:16:03;;;;;;;91.70;52.42;;;8.60;99.90;;;;;;5024097;28;20668;-72
2021/12/14 10:18:38;;;;;;;79.32;48.65;;;8.60;99.90;;;;;;5036120;28;20052;-71
2021/12/14 10:21:11;;;;;;;74.45;48.65;;;8.70;99.90;;;;;;5039344;28;20124;-71
2021/12/14 10:23:40;;;;;;;71.80;46.35;;;8.70;99.90;;;;;;5018703;28;20049;-72
2021/12/14 10:26:06;;;;;;;77.88;47.15;;;8.70;99.90;;;;;;5021576;28;20115;-71
2021/12/14 10:28:35;;;;;;;74.95;44.97;;;8.70;99.90;;;;;;5017370;28;20087;-72
2021/12/14 10:31:17;;;;;;;70.50;44.80;;;8.70;99.90;;;;;;5023115;28;20392;-72
2021/12/14 10:33:43;;;;;;;73.97;46.45;;;8.70;99.90;;;;;;5021267;28;20446;-71
2021/12/14 10:36:26;;;;;;;71.13;45.00;;;8.80;99.90;;;;;;5008056;28;20046;-72
2021/12/14 10:44:48;;;;;;;88.85;48.85;;;8.70;99.90;;;;;;5019836;28;20079;-72
2021/12/14 10:47:15;;;;;;;;;;;8.70;99.90;;;;;;4985717;28;20078;-72
2021/12/14 10:49:42;;;;;;;89.10;49.53;;;8.70;99.90;;;;;;5009090;28;19920;-72
2021/12/14 10:52:14;;;;;;;87.28;48.00;;;8.70;99.90;;;;;;5042367;28;20136;-71
2021/12/14 10:54:46;;;;;;;89.32;49.17;;;8.70;99.90;;;;;;5041530;28;20059;-71
2021/12/14 10:57:16;;;;;;;88.65;49.75;;;8.70;99.90;;;;;;5043969;28;20404;-71
2021/12/14 10:59:46;;;;;;;96.43;50.38;;;8.60;99.90;;;;;;5027146;28;20059;-71
2021/12/14 11:02:12;;;;;;;92.82;50.28;;;8.60;99.90;;;;;;5027467;28;20051;-72
2021/12/14 11:04:51;;;;;;;94.65;50.00;;;8.70;99.90;;;;;;5039948;28;20090;-72
2021/12/14 11:07:22;;;;;;;88.25;50.83;;;8.70;99.90;;;;;;5035214;28;20191;-71
2021/12/14 11:09:57;;;;;;;96.35;51.30;;;8.70;99.90;;;;;;5039819;28;20045;-71
2021/12/14 11:12:33;;;;;;;90.00;47.30;;;8.70;99.90;;;;;;5028859;28;20060;-71
2021/12/14 11:15:07;;;;;;;87.45;48.88;;;8.70;99.90;;;;;;5026463;28;20041;-71
2021/12/14 11:20:31;;;;;;;90.07;50.20;;;8.70;99.90;;;;;;5028819;28;20106;-72
2021/12/14 11:23:06;;;;;;;87.20;47.97;;;8.70;99.90;;;;;;5024215;28;20049;-72
2021/12/14 11:25:36;;;;;;;90.60;48.35;;;8.80;99.90;;;;;;5041750;28;20045;-72
2021/12/14 11:28:06;;;;;;;90.55;47.80;;;8.70;99.90;;;;;;5041612;28;20621;-72
2021/12/14 11:31:14;;;;;;;90.43;47.72;;;8.80;99.90;;;;;;5038399;28;20576;-72
2021/12/14 11:34:05;;;;;;;83.30;45.65;;;8.80;99.90;;;;;;5026910;28;20049;-72
2021/12/14 11:36:36;;;;;;;92.07;46.25;;;8.80;99.90;;;;;;5028981;28;20551;-72
2021/12/14 11:39:05;;;;;;;94.93;47.20;;;8.80;99.90;;;;;;5030052;28;20064;-72
2021/12/14 11:41:51;;;;;;;92.55;48.08;;;8.80;99.90;;;;;;5032695;28;20063;-72
2021/12/14 11:44:23;;;;;;;88.75;47.60;;;8.80;99.90;;;;;;5041565;28;20049;-72
2021/12/14 11:47:03;;;;;;;99.38;48.75;;;8.80;99.90;;;;;;5027128;28;20130;-71
2021/12/14 11:50:01;;;;;;;87.28;46.65;;;8.90;99.90;;;;;;5043697;28;20095;-72
2021/12/14 11:52:52;;;;;;;83.07;45.20;;;8.90;99.90;;;;;;5008795;28;20041;-72
2021/12/14 11:55:38;;;;;;;78.03;44.83;;;8.90;99.90;;;;;;5019655;28;20049;-71
2021/12/14 11:58:23;;;;;;;77.72;42.90;;;8.90;99.90;;;;;;5015985;28;20052;-72
2021/12/14 12:01:23;;;;;;;81.53;43.25;;;8.90;99.90;;;;;;5033586;28;20053;-72
2021/12/14 12:04:04;;;;;;;80.18;42.85;;;8.90;99.90;;;;;;5008427;28;20078;-71
2021/12/14 12:06:46;;;;;;;80.70;42.70;;;8.90;99.90;;;;;;5011076;28;20135;-71
2021/12/14 12:09:32;;;;;;;80.22;41.45;;;8.90;99.90;;;;;;5037052;28;20116;-72
2021/12/14 12:12:05;;;;;;;81.78;42.05;;;8.90;99.90;;;;;;5022024;28;20376;-72
2021/12/14 12:14:53;;;;;;;82.47;41.10;;;8.90;99.90;;;;;;5014807;28;20312;-72
2021/12/14 12:17:43;;;;;;;89.50;41.85;;;8.90;99.90;;;;;;5041191;28;20151;-72
2021/12/14 12:20:27;;;;;;;83.10;39.30;;;8.90;99.90;;;;;;5038121;28;20094;-72
2021/12/14 12:23:04;;;;;;;80.45;39.58;;;8.90;99.90;;;;;;5036168;28;20120;-72
2021/12/14 12:25:31;;;;;;;77.45;38.92;;;8.90;99.90;;;;;;5023592;28;20056;-71
2021/12/14 12:28:18;;;;;;;78.88;37.55;;;9.00;99.90;;;;;;5020741;28;20057;-71
2021/12/14 12:31:11;;;;;;;68.10;34.72;;;9.00;99.90;;;;;;5027549;28;20049;-71
2021/12/14 12:33:55;;;;;;;78.75;38.97;;;8.90;99.90;;;;;;5031740;28;20114;-71
2021/12/14 12:36:24;;;;;;;80.45;38.28;;;9.00;99.90;;;;;;5025584;28;20119;-71
2021/12/14 12:39:05;;;;;;;75.00;37.88;;;8.90;99.90;;;;;;5027663;28;20049;-71
2021/12/14 12:41:49;;;;;;;73.57;36.50;;;9.00;99.90;;;;;;5024968;28;20413;-71
2021/12/14 12:47:36;;;;;;;82.15;40.42;;;8.90;99.90;;;;;;5011731;28;20051;-72
2021/12/14 12:50:03;;;;;;;80.60;39.58;;;9.00;99.90;;;;;;5019798;28;20124;-72
2021/12/14 12:52:37;;;;;;;77.43;39.22;;;9.00;99.90;;;;;;5036115;28;20579;-71
2021/12/14 12:55:30;;;;;;;85.00;39.60;;;9.00;99.90;;;;;;5042231;28;20547;-72
2021/12/14 12:58:14;;;;;;;80.00;38.60;;;9.10;99.90;;;;;;5035453;28;20496;-72
2021/12/14 13:00:56;;;;;;;82.10;39.15;;;9.10;99.90;;;;;;5040923;28;20055;-71
2021/12/14 13:03:24;;;;;;;89.20;42.08;;;9.10;99.90;;;;;;5020678;28;20042;-72
2021/12/14 13:06:14;;;;;;;93.22;40.88;;;9.10;99.90;;;;;;5028266;28;20055;-71
2021/12/14 13:08:52;;;;;;;99.40;43.40;;;9.10;99.90;;;;;;5016001;28;20045;-72
2021/12/14 13:11:36;;;;;;;95.07;42.17;;;9.10;99.90;;;;;;5039230;28;20555;-71
2021/12/14 13:14:07;;;;;;;92.60;41.53;;;9.10;99.90;;;;;;5044644;28;20064;-72
2021/12/14 13:16:42;;;;;;;111.72;44.72;;;9.10;99.90;;;;;;5036476;28;20148;-72
2021/12/14 13:19:15;;;;;;;96.70;43.20;;;9.10;99.90;;;;;;5026925;28;20128;-72
2021/12/14 13:21:53;;;;;;;107.25;42.30;;;9.10;99.90;;;;;;5038258;28;20041;-72
2021/12/14 13:24:40;;;;;;;91.72;41.35;;;9.10;99.90;;;;;;5026012;28;20570;-71
2021/12/14 13:27:11;;;;;;;95.72;39.38;;;9.20;99.90;;;;;;5042641;28;20496;-71
2021/12/14 13:29:51;;;;;;;103.50;43.45;;;9.10;99.90;;;;;;5030335;28;20112;-71
2021/12/14 13:32:39;;;;;;;97.03;42.33;;;9.20;99.90;;;;;;5042754;28;20049;-71
2021/12/14 13:35:16;;;;;;;94.28;40.63;;;9.10;99.90;;;;;;5026206;28;20107;-71
2021/12/14 13:37:48;;;;;;;89.25;40.42;;;9.20;99.90;;;;;;5025299;28;20049;-71
2021/12/14 13:40:13;;;;;;;91.88;39.60;;;9.20;99.90;;;;;;5035666;28;20107;-71
2021/12/14 13:42:40;;;;;;;90.20;39.05;;;9.20;99.90;;;;;;5032486;28;20057;-71
2021/12/14 13:45:17;;;;;;;76.03;38.03;;;9.20;99.90;;;;;;5012871;28;20447;-74
2021/12/14 13:47:44;;;;;;;88.28;37.88;;;9.20;99.90;;;;;;5044113;28;20128;-71
2021/12/14 13:50:16;;;;;;;83.85;38.25;;;9.20;99.90;;;;;;5016782;28;20095;-71
2021/12/14 13:52:42;;;;;;;80.82;39.67;;;9.20;99.90;;;;;;5021334;28;20050;-72
2021/12/14 13:55:37;;;;;;;77.15;37.58;;;9.10;99.90;;;;;;5031992;28;20033;-72
2021/12/14 13:58:11;;;;;;;76.00;36.53;;;9.20;99.90;;;;;;5029635;28;20041;-72